Time;durP1;ratioP1;P1;durP2;ratioP2;P2;SDS_P1;SDS_P2;PMS_P1;PMS_P2;Temp;Humidity;BMP_temperature;BMP_pressure;BME280_temperature;BME280_humidity;BME280_pressure;Samples;Min_cycle;Max_cycle;Signal;HPM_P1;HPM_P2
2023/02/01 00:01:55;;;;;;;15.43;2.63;;;4.80;99.90;;;;;;4772575;30;20359;-84
2023/02/01 00:04:21;;;;;;;14.00;3.07;;;4.70;99.90;;;;;;4771017;30;20243;-82
2023/02/01 00:06:47;;;;;;;14.00;2.50;;;4.80;99.90;;;;;;4772070;30;20196;-80
2023/02/01 00:09:14;;;;;;;17.07;3.70;;;4.80;99.90;;;;;;4772425;30;20184;-80
2023/02/01 00:11:40;;;;;;;12.83;3.00;;;4.80;99.90;;;;;;4772249;30;20184;-82
2023/02/01 00:14:07;;;;;;;17.27;3.10;;;4.70;99.90;;;;;;4772082;30;20175;-80
2023/02/01 00:16:33;;;;;;;16.77;2.80;;;4.70;99.90;;;;;;4772096;30;20609;-81
2023/02/01 00:19:09;;;;;;;15.33;2.53;;;4.80;99.90;;;;;;4770949;30;20207;-87
2023/02/01 00:21:35;;;;;;;15.27;3.20;;;4.90;99.90;;;;;;4771872;30;20326;-81
2023/02/01 00:24:02;;;;;;;16.13;2.63;;;4.90;99.90;;;;;;4771969;30;20275;-81
2023/02/01 00:26:38;;;;;;;16.97;3.00;;;4.90;99.90;;;;;;4771965;30;20181;-84
2023/02/01 00:29:07;;;;;;;18.33;2.70;;;4.90;99.90;;;;;;4772102;30;20184;-87
2023/02/01 00:31:33;;;;;;;18.73;3.20;;;5.00;99.90;;;;;;4771944;30;20521;-79
2023/02/01 00:33:59;;;;;;;14.30;2.70;;;5.10;99.90;;;;;;4772071;30;20183;-81
2023/02/01 00:36:24;;;;;;;16.90;3.07;;;5.20;99.90;;;;;;4771720;30;20184;-84
2023/02/01 00:38:50;;;;;;;12.27;2.37;;;5.20;99.90;;;;;;4771910;30;20195;-82
2023/02/01 00:41:19;;;;;;;22.83;3.50;;;5.30;99.90;;;;;;4771634;30;20307;-82
2023/02/01 00:43:45;;;;;;;12.57;2.87;;;5.30;99.90;;;;;;4771514;30;20241;-83
2023/02/01 00:46:12;;;;;;;22.60;2.93;;;5.20;99.90;;;;;;4771727;30;20251;-82
2023/02/01 00:48:39;;;;;;;21.07;2.73;;;5.20;99.90;;;;;;4771654;30;20280;-80
2023/02/01 00:51:18;;;;;;;21.57;3.87;;;5.20;99.90;;;;;;4770430;30;20887;-80
2023/02/01 00:53:44;;;;;;;25.83;2.93;;;5.30;99.90;;;;;;4771311;30;20211;-81
2023/02/01 00:56:10;;;;;;;17.80;3.03;;;5.20;99.90;;;;;;4771410;30;20296;-81
2023/02/01 01:01:18;;;;;;;18.27;3.23;;;5.20;99.90;;;;;;5022810;24;20249;-80
2023/02/01 01:03:47;;;;;;;16.67;2.87;;;5.10;99.90;;;;;;4735627;30;20290;-80
2023/02/01 01:06:18;;;;;;;19.10;3.33;;;5.20;99.90;;;;;;4735896;30;20264;-81
2023/02/01 01:08:43;;;;;;;27.07;3.47;;;5.10;99.90;;;;;;4735967;30;20177;-80
2023/02/01 01:11:15;;;;;;;15.33;3.20;;;5.10;99.90;;;;;;4736030;30;20212;-79
2023/02/01 01:13:42;;;;;;;14.47;2.67;;;5.20;99.90;;;;;;4735834;30;20181;-80
2023/02/01 01:16:10;;;;;;;15.53;2.23;;;5.10;99.90;;;;;;4736004;30;20268;-80
2023/02/01 01:18:36;;;;;;;18.67;2.93;;;5.20;99.90;;;;;;4735869;30;20190;-80
2023/02/01 01:21:05;;;;;;;15.13;2.67;;;5.20;99.90;;;;;;4734394;30;20546;-80
2023/02/01 01:23:30;;;;;;;14.80;3.03;;;5.20;99.90;;;;;;4735498;30;20185;-80
2023/02/01 01:25:56;;;;;;;15.50;3.07;;;5.20;99.90;;;;;;4735771;30;20200;-79
2023/02/01 01:28:22;;;;;;;10.97;2.87;;;5.20;99.90;;;;;;4735486;30;20213;-80
2023/02/01 01:30:48;;;;;;;14.23;2.80;;;5.20;99.90;;;;;;4743804;30;20189;-80
2023/02/01 01:33:14;;;;;;;17.07;3.03;;;5.30;99.90;;;;;;4752897;30;20217;-80
2023/02/01 01:35:40;;;;;;;20.67;3.23;;;5.10;99.90;;;;;;4753251;30;20220;-79
2023/02/01 01:38:05;;;;;;;19.27;3.37;;;5.10;99.90;;;;;;4753133;30;20652;-80
2023/02/01 01:40:31;;;;;;;13.07;2.80;;;5.10;99.90;;;;;;4752926;30;20189;-79
2023/02/01 01:42:58;;;;;;;14.43;3.03;;;5.10;99.90;;;;;;4752998;30;20208;-80
2023/02/01 01:45:33;;;;;;;18.57;3.00;;;5.10;99.90;;;;;;4752683;30;20177;-80
2023/02/01 01:48:06;;;;;;;19.17;3.40;;;5.20;99.90;;;;;;4753055;30;20175;-81
2023/02/01 01:50:48;;;;;;;15.30;3.10;;;5.10;99.90;;;;;;4753036;30;20185;-79
2023/02/01 01:53:19;;;;;;;15.17;3.40;;;5.10;99.90;;;;;;4751698;30;20184;-80
2023/02/01 01:55:47;;;;;;;12.27;2.73;;;5.00;99.90;;;;;;4753130;30;20217;-80
2023/02/01 01:58:21;;;;;;;20.07;2.20;;;5.00;99.90;;;;;;4751708;30;20525;-81
2023/02/01 02:00:47;;;;;;;16.90;2.80;;;5.00;99.90;;;;;;4751195;30;20581;-80
2023/02/01 02:03:19;;;;;;;17.70;2.93;;;5.00;99.90;;;;;;4752521;30;20304;-80
2023/02/01 02:05:48;;;;;;;19.00;2.93;;;5.00;99.90;;;;;;4753294;30;20176;-81
2023/02/01 02:08:14;;;;;;;24.63;3.30;;;5.00;99.90;;;;;;4751654;30;20193;-80
2023/02/01 02:13:30;;;;;;;18.80;3.60;;;5.00;99.90;;;;;;4754022;30;20284;-79
2023/02/01 02:16:26;;;;;;;15.47;2.83;;;5.10;99.90;;;;;;4756328;30;20172;-81
2023/02/01 02:19:23;;;;;;;24.50;3.13;;;5.10;99.90;;;;;;4756507;30;20255;-79
2023/02/01 02:22:24;;;;;;;20.73;2.93;;;5.20;99.90;;;;;;4755063;30;20224;-82
2023/02/01 02:25:32;;;;;;;16.87;2.57;;;5.10;99.90;;;;;;4755281;30;20520;-84
2023/02/01 02:28:35;;;;;;;20.13;3.47;;;5.10;99.90;;;;;;4756223;30;20181;-82
2023/02/01 02:31:35;;;;;;;24.83;4.00;;;5.00;99.90;;;;;;4756206;30;20219;-79
2023/02/01 02:34:18;;;;;;;18.37;3.50;;;5.10;99.90;;;;;;4756191;30;20180;-80
2023/02/01 02:37:03;;;;;;;20.57;3.27;;;5.00;99.90;;;;;;4756420;30;20181;-79
2023/02/01 02:39:53;;;;;;;21.17;3.07;;;4.90;99.90;;;;;;4756403;30;20637;-81
2023/02/01 02:48:50;;;;;;;16.50;2.93;;;5.10;99.90;;;;;;4756177;30;20332;-83
2023/02/01 03:05:37;;;;;;;20.33;2.87;;;4.90;99.90;;;;;;4755800;30;20179;-80
2023/02/01 03:08:16;;;;;;;23.80;3.97;;;5.00;99.90;;;;;;4755906;30;20220;-82
2023/02/01 03:10:54;;;;;;;22.67;3.43;;;4.90;99.90;;;;;;4755856;30;20516;-80
2023/02/01 03:13:30;;;;;;;13.33;2.60;;;4.90;99.90;;;;;;4754324;30;20192;-80
2023/02/01 03:16:09;;;;;;;14.17;2.57;;;5.00;99.90;;;;;;4755280;30;20187;-82
2023/02/01 03:18:42;;;;;;;21.77;3.60;;;4.90;99.90;;;;;;4755784;30;20176;-82
2023/02/01 03:21:14;;;;;;;17.27;2.80;;;4.90;99.90;;;;;;4755613;30;20200;-82
2023/02/01 03:23:42;;;;;;;23.80;3.50;;;4.90;99.90;;;;;;4754995;30;20609;-85
2023/02/01 03:26:12;;;;;;;17.53;3.33;;;4.90;99.90;;;;;;4755372;30;20214;-81
2023/02/01 03:28:43;;;;;;;16.50;3.27;;;4.90;99.90;;;;;;4755477;30;20188;-84
2023/02/01 03:31:09;;;;;;;16.07;2.53;;;4.90;99.90;;;;;;4754166;30;20185;-84
2023/02/01 03:33:35;;;;;;;16.50;2.70;;;4.90;99.90;;;;;;4755322;30;20185;-81
2023/02/01 03:36:23;;;;;;;19.50;3.23;;;4.80;99.90;;;;;;4755455;30;20240;-80
2023/02/01 03:39:13;;;;;;;10.80;2.63;;;4.80;99.90;;;;;;4755251;30;20184;-81
2023/02/01 03:41:45;;;;;;;11.93;2.73;;;4.90;99.90;;;;;;4755493;30;20219;-81
2023/02/01 03:44:26;;;;;;;14.47;2.50;;;4.80;99.90;;;;;;4754093;30;20275;-81
2023/02/01 03:47:03;;;;;;;17.20;2.73;;;4.80;99.90;;;;;;4754867;30;20177;-82
2023/02/01 03:49:39;;;;;;;20.37;3.10;;;4.80;99.90;;;;;;4754107;30;20181;-83
2023/02/01 03:52:13;;;;;;;16.07;2.47;;;4.90;99.90;;;;;;4755162;30;20652;-81
2023/02/01 03:54:39;;;;;;;17.57;3.20;;;4.90;99.90;;;;;;4755042;30;20302;-83
2023/02/01 03:57:09;;;;;;;19.87;3.23;;;4.80;99.90;;;;;;4755059;30;20200;-84
2023/02/01 03:59:39;;;;;;;21.23;2.60;;;4.80;99.90;;;;;;4753843;30;20229;-84
2023/02/01 04:02:05;;;;;;;15.60;2.83;;;4.80;99.90;;;;;;4737004;30;20216;-81
2023/02/01 04:04:31;;;;;;;11.97;3.03;;;4.80;99.90;;;;;;4737526;30;20177;-85
2023/02/01 04:06:57;;;;;;;18.10;3.37;;;4.80;99.90;;;;;;4737290;30;20331;-83
2023/02/01 04:09:23;;;;;;;16.93;2.67;;;4.80;99.90;;;;;;4737318;30;20264;-81
2023/02/01 04:11:48;;;;;;;21.27;3.33;;;4.80;99.90;;;;;;4737487;30;20186;-84
2023/02/01 04:14:14;;;;;;;13.53;2.70;;;4.70;99.90;;;;;;4737380;30;20650;-81
2023/02/01 04:16:40;;;;;;;22.13;2.87;;;4.80;99.90;;;;;;4737497;30;20165;-89
2023/02/01 04:19:05;;;;;;;24.63;3.13;;;4.80;99.90;;;;;;4736352;30;20234;-81
2023/02/01 04:21:31;;;;;;;19.67;3.73;;;4.80;99.90;;;;;;4736017;30;20221;-83
2023/02/01 04:23:57;;;;;;;13.00;3.10;;;4.80;99.90;;;;;;4737157;30;20181;-80
2023/02/01 04:26:23;;;;;;;18.80;2.70;;;4.80;99.90;;;;;;4737393;30;20192;-81
2023/02/01 04:28:49;;;;;;;12.00;2.77;;;4.80;99.90;;;;;;4737257;30;20252;-79
2023/02/01 04:31:16;;;;;;;18.27;3.00;;;4.80;99.90;;;;;;4747622;30;20657;-80
2023/02/01 04:33:43;;;;;;;12.97;2.90;;;4.80;99.90;;;;;;4754667;30;20211;-81
2023/02/01 04:36:09;;;;;;;16.57;3.03;;;4.80;99.90;;;;;;4754308;30;20181;-83
2023/02/01 04:38:35;;;;;;;15.23;3.10;;;4.80;99.90;;;;;;4753745;30;20261;-86
2023/02/01 04:41:00;;;;;;;19.10;3.70;;;4.80;99.90;;;;;;4754780;30;20528;-82
2023/02/01 04:43:26;;;;;;;17.27;3.83;;;4.70;99.90;;;;;;4764819;30;20690;-82
2023/02/01 04:45:53;;;;;;;22.13;3.60;;;4.70;99.90;;;;;;4771171;30;20180;-82
2023/02/01 04:48:20;;;;;;;17.87;3.90;;;4.70;99.90;;;;;;4771743;30;20689;-84
2023/02/01 04:50:48;;;;;;;13.03;3.10;;;4.80;99.90;;;;;;4772508;30;20764;-81
2023/02/01 04:53:15;;;;;;;16.20;3.50;;;4.80;99.90;;;;;;4772105;30;20188;-79
2023/02/01 04:55:41;;;;;;;11.93;3.07;;;4.80;99.90;;;;;;4772215;30;20519;-80
2023/02/01 04:58:07;;;;;;;16.87;2.80;;;4.80;99.90;;;;;;4770975;30;20194;-80
2023/02/01 05:00:33;;;;;;;21.87;3.43;;;4.80;99.90;;;;;;4763643;30;20240;-79
2023/02/01 05:02:59;;;;;;;26.53;3.30;;;4.80;99.90;;;;;;4754154;30;20295;-80
2023/02/01 05:05:25;;;;;;;16.10;2.90;;;4.80;99.90;;;;;;4754021;30;20184;-80
2023/02/01 05:07:50;;;;;;;18.90;2.90;;;4.80;99.90;;;;;;4754251;30;20188;-80
2023/02/01 05:10:16;;;;;;;19.27;3.80;;;4.90;99.90;;;;;;4754082;30;20973;-79
2023/02/01 05:15:29;;;;;;;19.93;3.30;;;4.90;99.90;;;;;;4754177;30;20686;-80
2023/02/01 05:17:55;;;;;;;14.97;3.50;;;4.90;99.90;;;;;;4754132;30;20193;-79
2023/02/01 05:20:21;;;;;;;19.00;2.90;;;4.90;99.90;;;;;;4753988;30;20253;-82
2023/02/01 05:22:46;;;;;;;20.67;3.40;;;4.90;99.90;;;;;;4752681;30;20222;-79
2023/02/01 05:25:12;;;;;;;18.93;4.00;;;4.90;99.90;;;;;;4753986;30;20180;-81
2023/02/01 05:27:38;;;;;;;19.47;3.53;;;4.80;99.90;;;;;;4754158;30;20192;-80
2023/02/01 05:30:05;;;;;;;16.13;2.90;;;4.80;99.90;;;;;;4754020;30;20524;-80
2023/02/01 05:32:31;;;;;;;21.20;3.80;;;4.80;99.90;;;;;;4753097;30;20192;-79
2023/02/01 05:34:57;;;;;;;19.33;4.10;;;4.70;99.90;;;;;;4735972;30;20523;-79
2023/02/01 05:37:23;;;;;;;16.27;3.30;;;4.60;99.90;;;;;;4734679;30;20189;-80
2023/02/01 05:39:49;;;;;;;23.77;3.20;;;4.60;99.90;;;;;;4736151;30;20225;-80
2023/02/01 05:42:15;;;;;;;17.57;3.30;;;4.60;99.90;;;;;;4735949;30;20221;-80
2023/02/01 05:44:41;;;;;;;24.30;4.30;;;4.60;99.90;;;;;;4735981;30;20196;-79
2023/02/01 05:47:07;;;;;;;14.77;3.50;;;4.50;99.90;;;;;;4736148;30;20572;-79
2023/02/01 05:49:33;;;;;;;18.10;3.40;;;4.50;99.90;;;;;;4748940;30;20201;-79
2023/02/01 05:51:58;;;;;;;13.17;2.60;;;4.60;99.90;;;;;;4753526;30;20226;-79
2023/02/01 05:54:24;;;;;;;20.60;3.97;;;4.50;99.90;;;;;;4753180;30;20279;-80
2023/02/01 05:56:50;;;;;;;13.17;2.80;;;4.50;99.90;;;;;;4753714;30;20173;-79
2023/02/01 05:59:16;;;;;;;15.73;3.50;;;4.50;99.90;;;;;;4753559;30;20188;-80
2023/02/01 06:01:41;;;;;;;14.50;3.27;;;4.40;99.90;;;;;;4752916;30;20301;-79
2023/02/01 06:04:07;;;;;;;14.30;2.40;;;4.40;99.90;;;;;;4753108;30;20272;-79
2023/02/01 06:06:33;;;;;;;16.00;3.40;;;4.40;99.90;;;;;;4753257;30;20180;-79
2023/02/01 06:09:00;;;;;;;16.67;2.80;;;4.30;99.90;;;;;;4753143;30;20276;-79
2023/02/01 06:11:26;;;;;;;14.70;2.80;;;4.30;99.90;;;;;;4753307;30;20195;-80
2023/02/01 06:13:52;;;;;;;15.13;3.10;;;4.30;99.90;;;;;;4753270;30;20180;-80
2023/02/01 06:16:18;;;;;;;19.60;3.80;;;4.30;99.90;;;;;;4753531;30;20181;-80
2023/02/01 06:18:43;;;;;;;19.60;3.83;;;4.30;99.90;;;;;;4753350;30;20196;-80
2023/02/01 06:21:09;;;;;;;16.43;3.47;;;4.30;99.90;;;;;;4753134;30;20639;-79
2023/02/01 06:23:35;;;;;;;19.77;4.20;;;4.30;99.90;;;;;;4752804;30;20569;-79
2023/02/01 06:26:03;;;;;;;14.93;3.20;;;4.30;99.90;;;;;;4753453;30;20570;-80
2023/02/01 06:28:30;;;;;;;13.63;3.40;;;4.30;99.90;;;;;;4753426;30;20181;-79
2023/02/01 06:30:57;;;;;;;13.43;3.67;;;4.30;99.90;;;;;;4752081;30;20181;-79
2023/02/01 06:33:24;;;;;;;20.33;3.57;;;4.30;99.90;;;;;;4752840;30;20213;-80
2023/02/01 06:35:58;;;;;;;13.53;3.30;;;4.30;99.90;;;;;;4753271;30;20208;-79
2023/02/01 06:38:24;;;;;;;15.30;3.40;;;4.40;99.90;;;;;;4753145;30;20671;-81
2023/02/01 06:40:57;;;;;;;16.87;3.63;;;4.40;99.90;;;;;;4752459;30;20238;-79
2023/02/01 06:43:25;;;;;;;15.67;3.97;;;4.40;99.90;;;;;;4752145;30;20692;-79
2023/02/01 06:45:51;;;;;;;15.07;3.10;;;4.40;99.90;;;;;;4752475;30;20676;-79
2023/02/01 06:48:17;;;;;;;18.37;3.30;;;4.40;99.90;;;;;;4752704;30;20268;-79
2023/02/01 06:50:43;;;;;;;13.20;3.73;;;4.40;99.90;;;;;;4751398;30;20653;-79
2023/02/01 06:53:09;;;;;;;17.57;3.80;;;4.40;99.90;;;;;;4750735;30;20200;-81
2023/02/01 06:55:35;;;;;;;16.37;3.93;;;4.40;99.90;;;;;;4751335;30;20177;-79
2023/02/01 06:58:02;;;;;;;14.40;3.50;;;4.40;99.90;;;;;;4752437;30;20181;-79
2023/02/01 07:00:28;;;;;;;14.60;3.03;;;4.40;99.90;;;;;;4754719;30;20232;-79
2023/02/01 07:02:54;;;;;;;11.17;2.57;;;4.40;99.90;;;;;;4755392;30;20843;-79
2023/02/01 07:05:21;;;;;;;12.37;2.93;;;4.40;99.90;;;;;;4755710;30;20292;-80
2023/02/01 07:07:46;;;;;;;6.53;2.50;;;4.30;99.90;;;;;;4755489;30;20264;-79
2023/02/01 07:10:12;;;;;;;18.90;3.53;;;4.30;99.90;;;;;;4755753;30;20263;-79
2023/02/01 07:12:38;;;;;;;13.80;3.37;;;4.20;99.90;;;;;;4755369;30;20288;-79
2023/02/01 07:15:06;;;;;;;18.13;3.50;;;4.20;99.90;;;;;;4755382;30;20204;-79
2023/02/01 07:17:32;;;;;;;14.93;3.70;;;4.20;99.90;;;;;;4755490;30;20610;-79
2023/02/01 07:20:01;;;;;;;11.40;3.20;;;4.20;99.90;;;;;;4755367;30;20196;-79
2023/02/01 07:22:27;;;;;;;15.40;3.30;;;4.20;99.90;;;;;;4755149;30;20221;-82
2023/02/01 07:24:53;;;;;;;14.67;3.43;;;4.10;99.90;;;;;;4755168;30;20193;-79
2023/02/01 07:27:19;;;;;;;17.47;3.57;;;4.20;99.90;;;;;;4755323;30;20184;-79
2023/02/01 07:29:45;;;;;;;12.00;2.67;;;4.30;99.90;;;;;;4753743;30;20193;-79
2023/02/01 07:32:11;;;;;;;13.87;3.00;;;4.30;99.90;;;;;;4755020;30;20637;-79
2023/02/01 07:34:37;;;;;;;10.70;3.27;;;4.30;99.90;;;;;;4754976;30;20181;-82
2023/02/01 07:37:02;;;;;;;10.20;3.10;;;4.40;99.90;;;;;;4754937;30;20192;-79
2023/02/01 07:39:31;;;;;;;15.60;3.43;;;4.30;99.90;;;;;;4754908;30;20272;-79
2023/02/01 07:41:57;;;;;;;9.27;3.03;;;4.40;99.90;;;;;;4754586;30;20208;-79
2023/02/01 07:44:23;;;;;;;8.53;2.70;;;4.40;99.90;;;;;;4754931;30;20192;-80
2023/02/01 07:46:49;;;;;;;6.27;2.67;;;4.60;99.90;;;;;;4754966;30;20255;-80
2023/02/01 07:49:17;;;;;;;11.73;2.67;;;4.60;99.90;;;;;;4755030;30;20570;-80
2023/02/01 07:51:43;;;;;;;9.87;3.03;;;4.60;99.90;;;;;;4739124;30;20243;-80
2023/02/01 07:54:08;;;;;;;10.03;2.60;;;4.60;99.90;;;;;;4753330;30;20659;-80
2023/02/01 07:56:35;;;;;;;10.73;3.13;;;4.60;99.90;;;;;;4753499;30;20192;-80
2023/02/01 07:59:01;;;;;;;10.73;3.03;;;4.60;99.90;;;;;;4754745;30;20254;-80
2023/02/01 08:01:28;;;;;;;15.47;3.07;;;4.60;99.90;;;;;;4754343;30;20240;-81
2023/02/01 08:03:56;;;;;;;13.40;3.27;;;4.60;99.90;;;;;;4754647;30;20664;-80
2023/02/01 08:06:22;;;;;;;14.67;3.30;;;4.60;99.90;;;;;;4753541;30;20238;-81
2023/02/01 08:08:49;;;;;;;9.53;2.67;;;4.70;99.90;;;;;;4754464;30;20699;-80
2023/02/01 08:11:16;;;;;;;16.90;3.20;;;4.70;99.90;;;;;;4752340;30;20212;-80
2023/02/01 08:13:42;;;;;;;14.47;2.90;;;4.60;99.90;;;;;;4753079;30;20625;-80
2023/02/01 08:16:10;;;;;;;8.93;2.50;;;4.60;99.90;;;;;;4754561;30;20664;-80
2023/02/01 08:18:37;;;;;;;9.83;3.07;;;4.60;99.90;;;;;;4754539;30;20613;-80
2023/02/01 08:21:11;;;;;;;15.70;2.93;;;4.60;99.90;;;;;;4753225;30;20188;-80
2023/02/01 08:23:38;;;;;;;9.20;2.70;;;4.60;99.90;;;;;;4753539;30;20212;-79
2023/02/01 08:26:19;;;;;;;11.83;2.63;;;4.60;99.90;;;;;;4754242;30;20189;-78
2023/02/01 08:29:06;;;;;;;17.07;3.40;;;4.60;99.90;;;;;;4748858;30;20196;-80
2023/02/01 08:31:32;;;;;;;10.43;2.50;;;4.60;99.90;;;;;;4752141;30;20185;-79
2023/02/01 08:34:00;;;;;;;8.60;2.87;;;4.60;99.90;;;;;;4749786;30;20263;-80
2023/02/01 08:36:28;;;;;;;11.20;2.83;;;4.50;99.90;;;;;;4741987;30;20287;-78
2023/02/01 08:38:54;;;;;;;12.10;2.93;;;4.50;99.90;;;;;;4753931;30;20254;-80
2023/02/01 08:41:23;;;;;;;11.33;2.40;;;4.50;99.90;;;;;;4754009;30;20265;-79
2023/02/01 08:43:49;;;;;;;8.27;2.23;;;4.50;99.90;;;;;;4753970;30;20633;-80
2023/02/01 08:46:15;;;;;;;7.90;2.40;;;4.50;99.90;;;;;;4754040;30;20192;-80
2023/02/01 08:48:42;;;;;;;8.23;2.20;;;4.40;99.90;;;;;;4752774;30;20205;-79
2023/02/01 08:51:13;;;;;;;4.63;1.60;;;4.50;99.90;;;;;;4753844;30;20199;-80
2023/02/01 08:53:42;;;;;;;3.20;1.30;;;4.40;99.90;;;;;;4753389;30;20279;-79
2023/02/01 08:56:13;;;;;;;5.57;1.67;;;4.40;99.90;;;;;;4753942;30;20185;-80
2023/02/01 08:58:39;;;;;;;6.60;1.60;;;4.40;99.90;;;;;;4753876;30;20201;-79
2023/02/01 09:01:12;;;;;;;6.83;1.60;;;4.50;99.90;;;;;;4753543;30;20248;-80
2023/02/01 09:03:38;;;;;;;4.63;1.30;;;4.50;99.90;;;;;;4753385;30;20205;-80
2023/02/01 09:06:07;;;;;;;6.00;1.50;;;4.40;99.90;;;;;;4753737;30;20527;-81
2023/02/01 09:08:34;;;;;;;7.13;1.70;;;4.40;99.90;;;;;;4753484;30;20169;-80
2023/02/01 09:11:01;;;;;;;5.27;1.60;;;4.60;99.90;;;;;;4752401;30;20188;-80
2023/02/01 09:13:27;;;;;;;5.93;1.40;;;4.60;99.90;;;;;;4753353;30;20271;-80
2023/02/01 09:15:53;;;;;;;5.03;1.27;;;4.70;99.90;;;;;;4752893;30;20189;-80
2023/02/01 09:18:19;;;;;;;8.60;1.63;;;4.70;99.90;;;;;;4753480;30;20173;-79
2023/02/01 09:20:44;;;;;;;10.80;1.70;;;4.70;99.90;;;;;;4753447;30;20212;-80
2023/02/01 09:23:10;;;;;;;8.73;1.50;;;4.60;99.90;;;;;;4751308;30;20216;-79
2023/02/01 09:25:38;;;;;;;7.17;1.50;;;4.60;99.90;;;;;;4753299;30;20532;-79
2023/02/01 09:28:05;;;;;;;13.83;2.30;;;4.60;99.90;;;;;;4753283;30;20180;-80
2023/02/01 09:30:32;;;;;;;9.60;1.93;;;4.60;99.90;;;;;;4753266;30;20226;-79
2023/02/01 09:32:58;;;;;;;14.47;2.03;;;4.70;99.90;;;;;;4753077;30;20199;-80
2023/02/01 09:35:24;;;;;;;10.10;2.30;;;4.80;99.90;;;;;;4753355;30;20196;-79
2023/02/01 09:37:49;;;;;;;13.93;2.67;;;4.80;99.90;;;;;;4753233;30;20310;-80
2023/02/01 09:40:17;;;;;;;9.23;2.40;;;4.80;99.90;;;;;;4752846;30;20264;-80
2023/02/01 09:42:57;;;;;;;15.73;2.77;;;4.70;99.90;;;;;;4751441;30;20305;-80
2023/02/01 09:45:36;;;;;;;15.10;2.57;;;4.60;99.90;;;;;;4753504;30;20263;-80
2023/02/01 09:48:27;;;;;;;13.63;3.20;;;4.60;99.90;;;;;;4738246;30;20661;-80
2023/02/01 09:50:56;;;;;;;10.77;3.13;;;4.60;99.90;;;;;;4733930;30;20177;-79
2023/02/01 09:53:29;;;;;;;14.57;2.57;;;4.60;99.90;;;;;;4733348;30;20186;-79
2023/02/01 09:56:06;;;;;;;15.27;2.93;;;4.80;99.90;;;;;;4735153;30;20174;-80
2023/02/01 09:58:37;;;;;;;16.33;2.73;;;5.00;99.90;;;;;;4734937;30;20530;-79
2023/02/01 10:01:10;;;;;;;15.83;3.07;;;5.10;99.90;;;;;;4733721;30;20621;-79
2023/02/01 10:03:37;;;;;;;11.57;2.87;;;5.20;99.90;;;;;;4734867;30;20662;-79
2023/02/01 10:06:17;;;;;;;14.43;3.20;;;5.20;99.90;;;;;;4735255;30;20425;-79
2023/02/01 10:09:03;;;;;;;17.27;3.00;;;5.20;99.90;;;;;;4734872;30;20185;-80
2023/02/01 10:11:49;;;;;;;12.20;2.80;;;5.20;99.90;;;;;;4734727;30;20246;-81
2023/02/01 10:14:46;;;;;;;13.50;2.27;;;5.30;99.90;;;;;;4734818;30;20380;-80
2023/02/01 10:17:42;;;;;;;16.33;2.70;;;5.20;99.90;;;;;;4747471;30;20185;-80
2023/02/01 10:20:18;;;;;;;12.17;2.77;;;5.30;99.90;;;;;;4752510;30;20230;-80
2023/02/01 10:23:01;;;;;;;19.13;3.20;;;5.40;99.90;;;;;;4752095;30;20223;-79
2023/02/01 10:25:34;;;;;;;12.27;2.80;;;5.50;99.90;;;;;;4752292;30;20200;-80
2023/02/01 10:28:02;;;;;;;11.07;2.97;;;5.50;99.90;;;;;;4752615;30;20173;-80
2023/02/01 10:30:37;;;;;;;12.27;2.07;;;5.40;99.90;;;;;;4752572;30;20184;-79
2023/02/01 10:33:25;;;;;;;14.97;2.57;;;5.40;99.90;;;;;;4752194;30;20172;-79
2023/02/01 10:36:17;;;;;;;13.63;3.07;;;5.30;99.90;;;;;;4755804;30;20234;-85
2023/02/01 10:38:43;;;;;;;8.53;2.37;;;5.20;99.90;;;;;;4753959;30;20283;-90
2023/02/01 10:41:19;;;;;;;5.13;1.70;;;5.10;99.90;;;;;;4757244;30;20185;-87
2023/02/01 10:43:49;;;;;;;9.17;2.40;;;5.10;99.90;;;;;;4755001;30;20223;-87
2023/02/01 10:46:17;;;;;;;9.83;1.93;;;5.20;99.90;;;;;;4755110;30;20367;-90
2023/02/01 10:48:42;;;;;;;18.40;2.43;;;5.20;99.90;;;;;;4755223;30;20283;-88
2023/02/01 10:51:21;;;;;;;17.97;3.03;;;5.10;99.90;;;;;;4755076;30;20320;-89
2023/02/01 10:54:02;;;;;;;11.00;2.40;;;5.00;99.90;;;;;;4754498;30;20279;-89
2023/02/01 10:56:29;;;;;;;11.10;3.07;;;5.10;99.90;;;;;;4754788;30;20606;-87
2023/02/01 10:59:04;;;;;;;12.07;2.60;;;5.10;99.90;;;;;;4755879;30;20184;-89
2023/02/01 11:01:42;;;;;;;14.60;2.90;;;5.10;99.90;;;;;;4754418;30;20774;-89
2023/02/01 11:04:13;;;;;;;13.30;2.50;;;5.10;99.90;;;;;;4754502;30;20193;-89
2023/02/01 11:06:41;;;;;;;12.53;2.20;;;5.30;99.90;;;;;;4754597;30;20197;-88
2023/02/01 11:09:07;;;;;;;12.00;2.57;;;5.30;99.90;;;;;;4754526;30;20312;-88
2023/02/01 11:11:48;;;;;;;11.17;2.37;;;5.40;99.90;;;;;;4754499;30;20275;-89
2023/02/01 11:14:17;;;;;;;13.60;2.43;;;5.40;99.90;;;;;;4754393;30;20581;-87
2023/02/01 11:16:52;;;;;;;12.67;2.63;;;5.50;99.90;;;;;;4745225;30;20292;-85
2023/02/01 11:19:18;;;;;;;16.13;3.27;;;5.50;99.90;;;;;;4736516;30;20276;-87
2023/02/01 11:21:47;;;;;;;13.03;2.80;;;5.60;99.90;;;;;;4736398;30;20307;-87
2023/02/01 11:24:28;;;;;;;11.57;2.77;;;5.60;99.90;;;;;;4751060;30;20208;-86
2023/02/01 11:26:59;;;;;;;13.77;2.33;;;5.60;99.90;;;;;;4755034;30;20653;-88
2023/02/01 11:29:29;;;;;;;13.37;2.43;;;5.60;99.90;;;;;;4753795;30;20546;-86
2023/02/01 11:31:59;;;;;;;14.63;3.37;;;5.70;99.90;;;;;;4753835;30;20296;-87
2023/02/01 11:34:32;;;;;;;19.67;3.00;;;5.60;99.90;;;;;;4755104;30;20185;-87
2023/02/01 11:37:00;;;;;;;13.53;2.00;;;5.60;99.90;;;;;;4755129;30;20280;-84
2023/02/01 11:39:31;;;;;;;14.10;3.00;;;5.70;99.90;;;;;;4753459;30;20643;-86
2023/02/01 11:42:15;;;;;;;15.20;2.60;;;5.70;99.90;;;;;;4754648;30;20291;-84
2023/02/01 11:44:44;;;;;;;15.73;2.70;;;5.70;99.90;;;;;;4754255;30;20185;-85
2023/02/01 11:47:28;;;;;;;18.27;3.00;;;5.80;99.90;;;;;;4754907;30;20181;-83
2023/02/01 11:50:04;;;;;;;12.57;2.20;;;5.80;99.90;;;;;;4753576;30;20199;-82
2023/02/01 11:52:51;;;;;;;9.80;2.47;;;5.90;99.90;;;;;;4754402;30;20196;-83
2023/02/01 11:55:19;;;;;;;13.87;2.40;;;6.00;99.90;;;;;;4753621;30;20216;-83
2023/02/01 11:58:09;;;;;;;11.80;2.03;;;6.10;99.90;;;;;;4754682;30;20733;-84
2023/02/01 12:00:59;;;;;;;18.90;3.07;;;6.10;99.90;;;;;;4753049;30;20697;-86
2023/02/01 12:04:09;;;;;;;12.03;2.57;;;6.10;99.90;;;;;;4753065;30;20235;-81
2023/02/01 12:06:51;;;;;;;12.53;2.77;;;6.20;99.90;;;;;;4753415;30;20272;-84
2023/02/01 12:09:35;;;;;;;17.00;3.17;;;6.20;99.90;;;;;;4754160;30;20184;-85
2023/02/01 12:12:19;;;;;;;16.27;2.80;;;6.20;99.90;;;;;;4754394;30;20621;-83
2023/02/01 12:15:06;;;;;;;10.73;2.53;;;6.20;99.90;;;;;;4753004;30;20200;-84
2023/02/01 12:17:41;;;;;;;18.30;3.47;;;6.20;99.90;;;;;;4753027;30;20682;-81
2023/02/01 12:20:35;;;;;;;11.30;1.97;;;6.20;99.90;;;;;;4753107;30;20176;-87
2023/02/01 12:23:26;;;;;;;10.10;2.23;;;6.20;99.90;;;;;;4743656;30;20232;-82
2023/02/01 12:26:07;;;;;;;18.23;2.47;;;6.20;99.90;;;;;;4752892;30;20193;-85
2023/02/01 12:29:14;;;;;;;14.57;2.10;;;6.20;99.90;;;;;;4754118;30;20165;-83
2023/02/01 12:32:23;;;;;;;15.00;2.13;;;6.20;99.90;;;;;;4753838;30;20180;-82
2023/02/01 12:35:14;;;;;;;13.23;2.83;;;6.10;99.90;;;;;;4750754;30;20287;-82
2023/02/01 12:38:05;;;;;;;13.27;2.60;;;6.10;99.90;;;;;;4752741;30;20185;-82
2023/02/01 12:40:51;;;;;;;8.73;1.83;;;6.00;99.90;;;;;;4753895;30;20184;-83
2023/02/01 12:43:42;;;;;;;12.60;2.53;;;6.00;99.90;;;;;;4753600;30;20288;-83
2023/02/01 12:46:14;;;;;;;19.10;3.03;;;5.90;99.90;;;;;;4753197;30;20264;-86
2023/02/01 12:49:06;;;;;;;15.73;3.07;;;5.90;99.90;;;;;;4753913;30;20202;-83
2023/02/01 12:51:38;;;;;;;17.23;2.23;;;5.90;99.90;;;;;;4753824;30;20173;-82
2023/02/01 12:54:39;;;;;;;13.23;2.23;;;5.80;99.90;;;;;;4753166;30;20188;-85
2023/02/01 12:57:24;;;;;;;14.83;2.60;;;5.70;99.90;;;;;;4750616;30;20189;-85
2023/02/01 13:00:21;;;;;;;8.37;2.00;;;5.60;99.90;;;;;;4752226;30;20220;-87
2023/02/01 13:03:08;;;;;;;12.93;2.63;;;5.60;99.90;;;;;;4750828;30;20239;-87
2023/02/01 13:05:50;;;;;;;11.93;2.20;;;5.40;99.90;;;;;;4751293;30;20235;-83
2023/02/01 13:08:25;;;;;;;9.80;2.20;;;5.40;99.90;;;;;;4752193;30;20622;-81
2023/02/01 13:11:08;;;;;;;17.63;2.87;;;5.30;99.90;;;;;;4751584;30;20183;-82
2023/02/01 13:13:54;;;;;;;13.93;2.77;;;5.20;99.90;;;;;;4752019;30;20698;-87
2023/02/01 13:16:35;;;;;;;14.50;2.70;;;5.20;99.90;;;;;;4752534;30;20181;-90
2023/02/01 13:19:14;;;;;;;8.27;2.13;;;5.10;99.90;;;;;;4753502;30;20169;-81
2023/02/01 13:21:46;;;;;;;14.57;2.87;;;5.10;99.90;;;;;;4752131;30;20708;-84
2023/02/01 13:24:42;;;;;;;15.20;2.40;;;5.10;99.90;;;;;;4751972;30;20196;-85
2023/02/01 13:27:12;;;;;;;9.43;2.60;;;5.10;99.90;;;;;;4751841;30;20242;-90
2023/02/01 13:29:53;;;;;;;6.13;2.17;;;5.00;99.90;;;;;;4752395;30;20187;-89
2023/02/01 13:32:37;;;;;;;10.73;3.20;;;5.00;99.90;;;;;;4753255;30;20629;-88
2023/02/01 13:35:11;;;;;;;7.63;2.17;;;5.00;99.90;;;;;;4753419;30;20169;-84
2023/02/01 13:38:08;;;;;;;18.57;3.50;;;5.00;99.90;;;;;;4752038;30;20245;-86
2023/02/01 13:40:40;;;;;;;9.20;2.63;;;5.00;99.90;;;;;;4752333;30;20250;-88
2023/02/01 13:43:19;;;;;;;10.77;2.50;;;5.00;99.90;;;;;;4751900;30;20224;-85